sensor_id;sensor_type;location;lat;lon;timestamp;pressure;altitude;pressure_sealevel;temperature;humidity
63500;BME280;49654;51.142;14.924;2022-12-18T00:02:16;100629.41;;;-2.16;70.33
63500;BME280;49654;51.142;14.924;2022-12-18T00:04:43;100651.25;;;-2.11;70.94
63500;BME280;49654;51.142;14.924;2022-12-18T00:07:10;100640.59;;;-2.20;70.69
63500;BME280;49654;51.142;14.924;2022-12-18T00:09:37;100725.66;;;-1.59;70.36
63500;BME280;49654;51.142;14.924;2022-12-18T00:12:05;100718.25;;;-1.87;70.25
63500;BME280;49654;51.142;14.924;2022-12-18T00:14:32;100628.41;;;-3.06;71.75
63500;BME280;49654;51.142;14.924;2022-12-18T00:17:01;100712.03;;;-3.25;74.84
63500;BME280;49654;51.142;14.924;2022-12-18T00:19:28;100747.53;;;-2.95;75.57
63500;BME280;49654;51.142;14.924;2022-12-18T00:21:55;100719.88;;;-3.06;75.12
63500;BME280;49654;51.142;14.924;2022-12-18T00:24:23;100741.97;;;-2.82;74.84
63500;BME280;49654;51.142;14.924;2022-12-18T00:26:51;100716.94;;;-2.94;75.13
63500;BME280;49654;51.142;14.924;2022-12-18T00:29:18;100713.28;;;-2.85;74.86
63500;BME280;49654;51.142;14.924;2022-12-18T00:31:46;100700.88;;;-2.69;73.87
63500;BME280;49654;51.142;14.924;2022-12-18T00:34:14;100739.00;;;-2.44;73.38
63500;BME280;49654;51.142;14.924;2022-12-18T00:36:42;100704.94;;;-2.40;72.54
63500;BME280;49654;51.142;14.924;2022-12-18T00:39:10;100741.06;;;-2.07;72.14
63500;BME280;49654;51.142;14.924;2022-12-18T00:41:37;100691.72;;;-2.27;71.51
63500;BME280;49654;51.142;14.924;2022-12-18T00:44:22;100745.16;;;-2.03;70.75
63500;BME280;49654;51.142;14.924;2022-12-18T00:46:49;100753.47;;;-1.98;71.28
63500;BME280;49654;51.142;14.924;2022-12-18T00:49:18;100758.34;;;-2.15;70.93
63500;BME280;49654;51.142;14.924;2022-12-18T00:51:46;100766.03;;;-2.65;72.21
63500;BME280;49654;51.142;14.924;2022-12-18T00:54:14;100761.22;;;-2.49;73.06
63500;BME280;49654;51.142;14.924;2022-12-18T00:56:41;100759.34;;;-2.44;72.01
63500;BME280;49654;51.142;14.924;2022-12-18T00:59:08;100679.97;;;-2.78;72.21
63500;BME280;49654;51.142;14.924;2022-12-18T01:01:35;100750.91;;;-1.98;71.95
63500;BME280;49654;51.142;14.924;2022-12-18T01:04:03;100731.44;;;-1.99;71.34
63500;BME280;49654;51.142;14.924;2022-12-18T01:06:31;100760.84;;;-2.14;70.63
63500;BME280;49654;51.142;14.924;2022-12-18T01:08:58;100764.78;;;-2.05;71.62
63500;BME280;49654;51.142;14.924;2022-12-18T01:11:25;100754.59;;;-2.05;71.37
63500;BME280;49654;51.142;14.924;2022-12-18T01:13:53;100742.84;;;-2.33;70.90
63500;BME280;49654;51.142;14.924;2022-12-18T01:16:21;100658.00;;;-3.05;71.52
63500;BME280;49654;51.142;14.924;2022-12-18T01:18:51;100765.97;;;-2.39;71.59
63500;BME280;49654;51.142;14.924;2022-12-18T01:21:19;100774.91;;;-2.29;72.02
63500;BME280;49654;51.142;14.924;2022-12-18T01:23:51;100684.41;;;-2.59;71.00
63500;BME280;49654;51.142;14.924;2022-12-18T01:26:19;100779.56;;;-2.40;71.64
63500;BME280;49654;51.142;14.924;2022-12-18T01:28:46;100777.94;;;-2.42;71.91
63500;BME280;49654;51.142;14.924;2022-12-18T01:31:16;100752.75;;;-2.50;71.87
63500;BME280;49654;51.142;14.924;2022-12-18T01:33:44;100765.78;;;-2.59;72.16
63500;BME280;49654;51.142;14.924;2022-12-18T01:36:16;100751.94;;;-2.50;72.15
63500;BME280;49654;51.142;14.924;2022-12-18T01:38:44;100749.06;;;-2.41;72.44
63500;BME280;49654;51.142;14.924;2022-12-18T01:41:13;100770.63;;;-2.03;71.92
63500;BME280;49654;51.142;14.924;2022-12-18T01:43:42;100776.81;;;-2.10;71.43
63500;BME280;49654;51.142;14.924;2022-12-18T01:46:10;100778.09;;;-2.47;71.69
63500;BME280;49654;51.142;14.924;2022-12-18T01:48:37;100744.94;;;-2.44;71.38
63500;BME280;49654;51.142;14.924;2022-12-18T01:51:08;100730.28;;;-2.62;70.87
63500;BME280;49654;51.142;14.924;2022-12-18T01:53:37;100792.16;;;-2.37;71.33
63500;BME280;49654;51.142;14.924;2022-12-18T01:56:06;100791.47;;;-2.67;72.87
63500;BME280;49654;51.142;14.924;2022-12-18T01:58:39;100804.50;;;-2.76;72.67
63500;BME280;49654;51.142;14.924;2022-12-18T02:01:08;100798.31;;;-2.94;74.01
63500;BME280;49654;51.142;14.924;2022-12-18T02:03:37;100792.25;;;-2.90;73.93
63500;BME280;49654;51.142;14.924;2022-12-18T02:06:10;100789.09;;;-2.98;74.20
63500;BME280;49654;51.142;14.924;2022-12-18T02:08:45;100696.94;;;-3.30;73.53
63500;BME280;49654;51.142;14.924;2022-12-18T02:11:20;100761.44;;;-2.81;73.32
63500;BME280;49654;51.142;14.924;2022-12-18T02:14:00;100639.75;;;-3.68;72.75
63500;BME280;49654;51.142;14.924;2022-12-18T02:16:36;100790.16;;;-2.79;72.45
63500;BME280;49654;51.142;14.924;2022-12-18T02:19:14;100785.50;;;-2.66;72.93
63500;BME280;49654;51.142;14.924;2022-12-18T02:21:49;100795.91;;;-2.47;72.29
63500;BME280;49654;51.142;14.924;2022-12-18T02:24:28;100804.41;;;-2.73;72.54
63500;BME280;49654;51.142;14.924;2022-12-18T02:26:59;100790.09;;;-2.50;71.70
63500;BME280;49654;51.142;14.924;2022-12-18T02:29:31;100802.59;;;-2.69;71.42
63500;BME280;49654;51.142;14.924;2022-12-18T02:32:00;100796.09;;;-3.05;72.58
63500;BME280;49654;51.142;14.924;2022-12-18T02:34:32;100803.75;;;-2.80;72.20
63500;BME280;49654;51.142;14.924;2022-12-18T02:37:04;100772.44;;;-2.80;72.44
63500;BME280;49654;51.142;14.924;2022-12-18T02:39:34;100801.66;;;-2.67;71.92
63500;BME280;49654;51.142;14.924;2022-12-18T02:42:03;100802.75;;;-2.49;71.75
63500;BME280;49654;51.142;14.924;2022-12-18T02:44:33;100806.41;;;-2.31;70.69
63500;BME280;49654;51.142;14.924;2022-12-18T02:47:01;100802.28;;;-2.60;71.43
63500;BME280;49654;51.142;14.924;2022-12-18T02:49:40;100815.94;;;-2.63;71.98
63500;BME280;49654;51.142;14.924;2022-12-18T02:52:18;100767.19;;;-2.75;71.72
63500;BME280;49654;51.142;14.924;2022-12-18T02:54:56;100803.75;;;-2.80;72.10
63500;BME280;49654;51.142;14.924;2022-12-18T02:57:33;100801.03;;;-2.48;72.39
63500;BME280;49654;51.142;14.924;2022-12-18T03:00:05;100792.38;;;-2.43;71.52
63500;BME280;49654;51.142;14.924;2022-12-18T03:02:38;100814.13;;;-2.09;70.41
63500;BME280;49654;51.142;14.924;2022-12-18T03:05:11;100821.53;;;-2.03;69.40
63500;BME280;49654;51.142;14.924;2022-12-18T03:07:43;100827.53;;;-2.04;69.80
63500;BME280;49654;51.142;14.924;2022-12-18T03:10:15;100817.72;;;-2.40;70.61
63500;BME280;49654;51.142;14.924;2022-12-18T03:12:47;100827.06;;;-2.15;70.39
63500;BME280;49654;51.142;14.924;2022-12-18T03:15:19;100698.28;;;-2.93;70.70
63500;BME280;49654;51.142;14.924;2022-12-18T03:17:54;100827.28;;;-2.21;70.51
63500;BME280;49654;51.142;14.924;2022-12-18T03:20:25;100827.13;;;-2.17;70.19
63500;BME280;49654;51.142;14.924;2022-12-18T03:23:02;100821.97;;;-2.15;70.30
63500;BME280;49654;51.142;14.924;2022-12-18T03:25:32;100798.09;;;-2.36;70.28
63500;BME280;49654;51.142;14.924;2022-12-18T03:28:03;100819.47;;;-2.17;70.01
63500;BME280;49654;51.142;14.924;2022-12-18T03:30:36;100746.91;;;-2.52;69.80
63500;BME280;49654;51.142;14.924;2022-12-18T03:33:08;100815.84;;;-2.10;69.85
63500;BME280;49654;51.142;14.924;2022-12-18T03:35:40;100825.16;;;-2.09;69.87
63500;BME280;49654;51.142;14.924;2022-12-18T03:38:09;100830.22;;;-2.09;70.21
63500;BME280;49654;51.142;14.924;2022-12-18T03:40:43;100836.00;;;-2.04;69.71
63500;BME280;49654;51.142;14.924;2022-12-18T03:43:19;100829.44;;;-2.36;69.85
63500;BME280;49654;51.142;14.924;2022-12-18T03:45:51;100801.50;;;-2.37;70.24
63500;BME280;49654;51.142;14.924;2022-12-18T03:48:28;100830.78;;;-2.50;70.33
63500;BME280;49654;51.142;14.924;2022-12-18T03:50:59;100820.09;;;-2.60;71.04
63500;BME280;49654;51.142;14.924;2022-12-18T03:53:34;100786.38;;;-2.65;70.00
63500;BME280;49654;51.142;14.924;2022-12-18T03:56:04;100834.78;;;-2.68;71.12
63500;BME280;49654;51.142;14.924;2022-12-18T03:58:35;100830.00;;;-2.78;71.92
63500;BME280;49654;51.142;14.924;2022-12-18T04:01:05;100837.72;;;-3.09;73.44
63500;BME280;49654;51.142;14.924;2022-12-18T04:03:35;100815.03;;;-2.87;72.90
63500;BME280;49654;51.142;14.924;2022-12-18T04:06:03;100781.47;;;-2.98;72.73
63500;BME280;49654;51.142;14.924;2022-12-18T04:08:31;100836.59;;;-2.72;72.37
63500;BME280;49654;51.142;14.924;2022-12-18T04:11:00;100739.84;;;-3.48;73.27
63500;BME280;49654;51.142;14.924;2022-12-18T04:13:31;100837.00;;;-2.59;72.90
63500;BME280;49654;51.142;14.924;2022-12-18T04:16:00;100835.44;;;-2.63;72.84
63500;BME280;49654;51.142;14.924;2022-12-18T04:18:27;100831.09;;;-2.60;72.53
63500;BME280;49654;51.142;14.924;2022-12-18T04:20:54;100830.06;;;-2.54;72.17
63500;BME280;49654;51.142;14.924;2022-12-18T04:23:21;100838.28;;;-2.46;72.18
63500;BME280;49654;51.142;14.924;2022-12-18T04:25:48;100822.53;;;-2.57;72.28
63500;BME280;49654;51.142;14.924;2022-12-18T04:28:15;100839.31;;;-2.52;72.37
63500;BME280;49654;51.142;14.924;2022-12-18T04:30:42;100841.78;;;-2.50;72.33
63500;BME280;49654;51.142;14.924;2022-12-18T04:33:11;100797.66;;;-2.74;71.87
63500;BME280;49654;51.142;14.924;2022-12-18T04:35:39;100850.00;;;-2.42;72.02
63500;BME280;49654;51.142;14.924;2022-12-18T04:38:06;100846.91;;;-2.25;71.71
63500;BME280;49654;51.142;14.924;2022-12-18T04:40:34;100840.41;;;-2.34;71.64
63500;BME280;49654;51.142;14.924;2022-12-18T04:43:01;100815.09;;;-2.63;71.61
63500;BME280;49654;51.142;14.924;2022-12-18T04:45:29;100683.16;;;-3.49;71.88
63500;BME280;49654;51.142;14.924;2022-12-18T04:47:57;100827.06;;;-2.65;72.35
63500;BME280;49654;51.142;14.924;2022-12-18T04:50:25;100848.44;;;-2.46;72.46
63500;BME280;49654;51.142;14.924;2022-12-18T04:52:52;100854.53;;;-2.50;72.23
63500;BME280;49654;51.142;14.924;2022-12-18T04:55:19;100861.78;;;-2.64;73.15
63500;BME280;49654;51.142;14.924;2022-12-18T04:57:47;100869.78;;;-2.77;73.30
63500;BME280;49654;51.142;14.924;2022-12-18T05:00:14;100865.44;;;-3.01;73.48
63500;BME280;49654;51.142;14.924;2022-12-18T05:02:41;100887.25;;;-3.22;73.26
63500;BME280;49654;51.142;14.924;2022-12-18T05:05:09;100796.22;;;-3.65;73.88
63500;BME280;49654;51.142;14.924;2022-12-18T05:07:37;100850.09;;;-3.56;73.59
63500;BME280;49654;51.142;14.924;2022-12-18T05:10:05;100896.59;;;-3.22;72.90
63500;BME280;49654;51.142;14.924;2022-12-18T05:12:32;100849.53;;;-3.64;73.42
63500;BME280;49654;51.142;14.924;2022-12-18T05:14:59;100888.53;;;-3.66;73.53
63500;BME280;49654;51.142;14.924;2022-12-18T05:17:26;100880.28;;;-3.74;73.85
63500;BME280;49654;51.142;14.924;2022-12-18T05:19:53;100864.31;;;-3.48;72.64
63500;BME280;49654;51.142;14.924;2022-12-18T05:22:21;100909.81;;;-3.41;72.65
63500;BME280;49654;51.142;14.924;2022-12-18T05:24:49;100917.78;;;-3.84;72.89
63500;BME280;49654;51.142;14.924;2022-12-18T05:27:16;100850.19;;;-4.19;73.09
63500;BME280;49654;51.142;14.924;2022-12-18T05:29:45;100893.28;;;-3.85;73.09
63500;BME280;49654;51.142;14.924;2022-12-18T05:32:12;100789.69;;;-4.35;72.72
63500;BME280;49654;51.142;14.924;2022-12-18T05:34:39;100917.97;;;-3.59;73.14
63500;BME280;49654;51.142;14.924;2022-12-18T05:37:06;100910.75;;;-3.74;73.29
63500;BME280;49654;51.142;14.924;2022-12-18T05:39:33;100737.03;;;-4.58;72.92
63500;BME280;49654;51.142;14.924;2022-12-18T05:42:01;100921.13;;;-3.51;72.24
63500;BME280;49654;51.142;14.924;2022-12-18T05:44:28;100817.72;;;-4.07;72.71
63500;BME280;49654;51.142;14.924;2022-12-18T05:46:55;100863.31;;;-3.74;72.67
63500;BME280;49654;51.142;14.924;2022-12-18T05:49:22;100902.31;;;-3.45;72.52
63500;BME280;49654;51.142;14.924;2022-12-18T05:51:49;100911.03;;;-3.54;72.69
63500;BME280;49654;51.142;14.924;2022-12-18T05:54:16;100896.72;;;-3.57;72.46
63500;BME280;49654;51.142;14.924;2022-12-18T05:56:43;100903.16;;;-3.45;72.04
63500;BME280;49654;51.142;14.924;2022-12-18T05:59:12;100910.09;;;-3.20;71.86
63500;BME280;49654;51.142;14.924;2022-12-18T06:01:39;100911.75;;;-3.19;71.05
63500;BME280;49654;51.142;14.924;2022-12-18T06:04:06;100920.25;;;-3.52;71.73
63500;BME280;49654;51.142;14.924;2022-12-18T06:06:33;100922.94;;;-3.56;72.57
63500;BME280;49654;51.142;14.924;2022-12-18T06:09:00;100928.75;;;-3.51;71.90
63500;BME280;49654;51.142;14.924;2022-12-18T06:11:35;100925.34;;;-3.52;71.94
63500;BME280;49654;51.142;14.924;2022-12-18T06:14:04;100925.75;;;-3.36;72.54
63500;BME280;49654;51.142;14.924;2022-12-18T06:16:32;100918.09;;;-3.65;72.16
63500;BME280;49654;51.142;14.924;2022-12-18T06:19:00;100916.88;;;-3.50;72.97
63500;BME280;49654;51.142;14.924;2022-12-18T06:21:29;100924.84;;;-3.64;72.64
63500;BME280;49654;51.142;14.924;2022-12-18T06:23:56;100934.03;;;-3.59;73.41
63500;BME280;49654;51.142;14.924;2022-12-18T06:26:23;100907.66;;;-3.55;72.60
63500;BME280;49654;51.142;14.924;2022-12-18T06:28:50;100914.06;;;-3.41;72.42
63500;BME280;49654;51.142;14.924;2022-12-18T06:31:18;100918.94;;;-3.34;71.96
63500;BME280;49654;51.142;14.924;2022-12-18T06:33:46;100941.19;;;-3.12;71.92
63500;BME280;49654;51.142;14.924;2022-12-18T06:36:14;100829.00;;;-3.87;72.04
63500;BME280;49654;51.142;14.924;2022-12-18T06:38:43;100937.59;;;-3.35;71.91
63500;BME280;49654;51.142;14.924;2022-12-18T06:41:12;100948.81;;;-3.12;72.12
63500;BME280;49654;51.142;14.924;2022-12-18T06:43:43;100880.44;;;-3.81;71.82
63500;BME280;49654;51.142;14.924;2022-12-18T06:46:13;100929.22;;;-3.69;73.00
63500;BME280;49654;51.142;14.924;2022-12-18T06:48:41;100862.50;;;-4.06;73.16
63500;BME280;49654;51.142;14.924;2022-12-18T06:51:09;100967.41;;;-3.41;72.64
63500;BME280;49654;51.142;14.924;2022-12-18T06:53:36;100825.84;;;-4.61;73.10
63500;BME280;49654;51.142;14.924;2022-12-18T06:56:06;100885.34;;;-4.07;73.13
63500;BME280;49654;51.142;14.924;2022-12-18T06:58:33;100937.66;;;-3.69;72.75
63500;BME280;49654;51.142;14.924;2022-12-18T07:01:00;100925.41;;;-3.53;72.52
63500;BME280;49654;51.142;14.924;2022-12-18T07:03:28;100968.03;;;-3.33;72.54
63500;BME280;49654;51.142;14.924;2022-12-18T07:05:55;100971.34;;;-3.31;72.72
63500;BME280;49654;51.142;14.924;2022-12-18T07:08:24;100973.25;;;-3.38;72.51
63500;BME280;49654;51.142;14.924;2022-12-18T07:10:51;100964.19;;;-3.46;72.17
63500;BME280;49654;51.142;14.924;2022-12-18T07:13:22;100931.72;;;-3.37;71.63
63500;BME280;49654;51.142;14.924;2022-12-18T07:15:50;100966.19;;;-3.28;71.98
63500;BME280;49654;51.142;14.924;2022-12-18T07:18:17;100923.88;;;-3.91;72.54
63500;BME280;49654;51.142;14.924;2022-12-18T07:20:44;100991.81;;;-3.36;71.74
63500;BME280;49654;51.142;14.924;2022-12-18T07:23:11;101007.06;;;-3.68;72.61
63500;BME280;49654;51.142;14.924;2022-12-18T07:25:40;101001.38;;;-3.76;72.99
63500;BME280;49654;51.142;14.924;2022-12-18T07:28:07;100998.34;;;-3.58;72.39
63500;BME280;49654;51.142;14.924;2022-12-18T07:30:36;100911.91;;;-4.19;72.59
63500;BME280;49654;51.142;14.924;2022-12-18T07:33:03;100977.50;;;-3.38;73.15
63500;BME280;49654;51.142;14.924;2022-12-18T07:35:32;101011.34;;;-3.07;72.23
63500;BME280;49654;51.142;14.924;2022-12-18T07:37:59;100991.88;;;-3.39;71.28
63500;BME280;49654;51.142;14.924;2022-12-18T07:40:27;101019.53;;;-2.97;70.56
63500;BME280;49654;51.142;14.924;2022-12-18T07:42:56;101008.31;;;-3.19;70.22
63500;BME280;49654;51.142;14.924;2022-12-18T07:45:23;101012.22;;;-3.39;70.10
63500;BME280;49654;51.142;14.924;2022-12-18T07:47:51;101001.53;;;-3.52;70.83
63500;BME280;49654;51.142;14.924;2022-12-18T07:50:18;101011.34;;;-3.38;70.52
63500;BME280;49654;51.142;14.924;2022-12-18T07:52:45;101025.22;;;-3.18;70.65
63500;BME280;49654;51.142;14.924;2022-12-18T07:55:12;101036.91;;;-3.11;70.03
63500;BME280;49654;51.142;14.924;2022-12-18T07:57:40;101035.69;;;-2.98;70.07
63500;BME280;49654;51.142;14.924;2022-12-18T08:00:10;101050.63;;;-2.87;68.66
63500;BME280;49654;51.142;14.924;2022-12-18T08:02:38;100988.81;;;-3.50;69.81
63500;BME280;49654;51.142;14.924;2022-12-18T08:05:05;101044.06;;;-2.94;69.53
63500;BME280;49654;51.142;14.924;2022-12-18T08:07:32;101043.94;;;-2.91;69.86
63500;BME280;49654;51.142;14.924;2022-12-18T08:09:59;101040.06;;;-3.03;69.80
63500;BME280;49654;51.142;14.924;2022-12-18T08:12:26;101042.63;;;-3.05;70.07
63500;BME280;49654;51.142;14.924;2022-12-18T08:14:53;101035.75;;;-2.99;70.02
63500;BME280;49654;51.142;14.924;2022-12-18T08:17:22;101010.81;;;-2.87;69.25
63500;BME280;49654;51.142;14.924;2022-12-18T08:19:49;100975.81;;;-3.08;69.25
63500;BME280;49654;51.142;14.924;2022-12-18T08:22:16;101008.00;;;-2.79;68.45
63500;BME280;49654;51.142;14.924;2022-12-18T08:24:43;100950.38;;;-3.38;69.25
63500;BME280;49654;51.142;14.924;2022-12-18T08:27:11;100993.00;;;-3.16;69.06
63500;BME280;49654;51.142;14.924;2022-12-18T08:29:39;101018.19;;;-2.79;69.30
63500;BME280;49654;51.142;14.924;2022-12-18T08:32:07;100948.44;;;-3.00;69.30
63500;BME280;49654;51.142;14.924;2022-12-18T08:34:36;101021.59;;;-2.80;68.78
63500;BME280;49654;51.142;14.924;2022-12-18T08:37:03;100914.81;;;-3.38;68.71
63500;BME280;49654;51.142;14.924;2022-12-18T08:39:30;100991.16;;;-3.11;69.14
63500;BME280;49654;51.142;14.924;2022-12-18T08:41:57;100872.59;;;-3.71;69.30
63500;BME280;49654;51.142;14.924;2022-12-18T08:44:42;101029.28;;;-2.52;68.39
63500;BME280;49654;51.142;14.924;2022-12-18T08:47:09;100999.44;;;-2.47;68.05
63500;BME280;49654;51.142;14.924;2022-12-18T08:49:40;101001.75;;;-2.67;68.09
63500;BME280;49654;51.142;14.924;2022-12-18T08:52:07;101001.22;;;-2.79;69.24
63500;BME280;49654;51.142;14.924;2022-12-18T08:54:34;101007.75;;;-2.42;68.53
63500;BME280;49654;51.142;14.924;2022-12-18T08:57:02;100984.84;;;-2.70;68.04
63500;BME280;49654;51.142;14.924;2022-12-18T08:59:29;101002.88;;;-2.48;68.46
63500;BME280;49654;51.142;14.924;2022-12-18T09:01:58;101002.38;;;-2.89;69.10
63500;BME280;49654;51.142;14.924;2022-12-18T09:04:25;101008.31;;;-2.60;68.71
63500;BME280;49654;51.142;14.924;2022-12-18T09:06:54;101002.59;;;-2.39;68.49
63500;BME280;49654;51.142;14.924;2022-12-18T09:09:21;100936.81;;;-2.51;67.03
63500;BME280;49654;51.142;14.924;2022-12-18T09:11:48;101000.25;;;-1.92;66.60
63500;BME280;49654;51.142;14.924;2022-12-18T09:14:15;100971.56;;;-1.97;66.12
63500;BME280;49654;51.142;14.924;2022-12-18T09:16:42;100990.03;;;-1.65;65.99
63500;BME280;49654;51.142;14.924;2022-12-18T09:19:10;100998.34;;;-1.60;65.21
63500;BME280;49654;51.142;14.924;2022-12-18T09:21:37;101000.84;;;-1.84;65.44
63500;BME280;49654;51.142;14.924;2022-12-18T09:24:08;100940.03;;;-2.46;65.51
63500;BME280;49654;51.142;14.924;2022-12-18T09:26:38;101014.34;;;-2.35;67.06
63500;BME280;49654;51.142;14.924;2022-12-18T09:29:06;101009.91;;;-2.56;67.59
63500;BME280;49654;51.142;14.924;2022-12-18T09:31:35;100949.63;;;-2.82;68.08
63500;BME280;49654;51.142;14.924;2022-12-18T09:34:02;100997.53;;;-2.40;67.55
63500;BME280;49654;51.142;14.924;2022-12-18T09:36:29;100996.94;;;-2.48;67.52
63500;BME280;49654;51.142;14.924;2022-12-18T09:38:56;101031.69;;;-2.47;67.81
63500;BME280;49654;51.142;14.924;2022-12-18T09:41:42;101025.88;;;-2.24;67.68
63500;BME280;49654;51.142;14.924;2022-12-18T09:44:15;101037.66;;;-2.20;67.57
63500;BME280;49654;51.142;14.924;2022-12-18T09:46:47;101039.59;;;-2.02;67.48
63500;BME280;49654;51.142;14.924;2022-12-18T09:49:18;101044.78;;;-1.52;66.23
63500;BME280;49654;51.142;14.924;2022-12-18T09:51:49;101039.50;;;-1.72;65.01
63500;BME280;49654;51.142;14.924;2022-12-18T09:54:20;101017.78;;;-2.09;65.11
63500;BME280;49654;51.142;14.924;2022-12-18T09:56:50;101056.88;;;-1.59;65.62
63500;BME280;49654;51.142;14.924;2022-12-18T09:59:21;101049.31;;;-1.87;64.80
63500;BME280;49654;51.142;14.924;2022-12-18T10:01:50;101040.72;;;-1.84;64.75
63500;BME280;49654;51.142;14.924;2022-12-18T10:04:17;101049.50;;;-1.66;64.80
63500;BME280;49654;51.142;14.924;2022-12-18T10:06:50;101016.72;;;-1.77;63.08
63500;BME280;49654;51.142;14.924;2022-12-18T10:09:27;101055.72;;;-2.02;64.31
63500;BME280;49654;51.142;14.924;2022-12-18T10:12:04;101053.47;;;-1.84;64.61
63500;BME280;49654;51.142;14.924;2022-12-18T10:14:36;101054.47;;;-1.63;63.88
63500;BME280;49654;51.142;14.924;2022-12-18T10:17:13;101054.91;;;-1.26;63.16
63500;BME280;49654;51.142;14.924;2022-12-18T10:19:46;101047.47;;;-0.83;70.77
63500;BME280;49654;51.142;14.924;2022-12-18T10:22:29;100956.31;;;-1.25;67.43
63500;BME280;49654;51.142;14.924;2022-12-18T10:25:03;100921.97;;;-2.12;63.47
63500;BME280;49654;51.142;14.924;2022-12-18T10:27:38;101015.50;;;-1.65;64.13
63500;BME280;49654;51.142;14.924;2022-12-18T10:30:13;101048.38;;;-1.58;66.03
63500;BME280;49654;51.142;14.924;2022-12-18T10:32:40;100859.78;;;-2.30;64.89
63500;BME280;49654;51.142;14.924;2022-12-18T10:35:15;101030.41;;;-1.80;64.21
63500;BME280;49654;51.142;14.924;2022-12-18T10:37:59;101038.38;;;-1.64;64.61
63500;BME280;49654;51.142;14.924;2022-12-18T10:40:27;100942.06;;;-2.57;64.21
63500;BME280;49654;51.142;14.924;2022-12-18T10:43:05;101028.25;;;-1.92;64.03
63500;BME280;49654;51.142;14.924;2022-12-18T10:45:37;100991.22;;;-2.29;64.35
63500;BME280;49654;51.142;14.924;2022-12-18T10:48:18;100989.88;;;-2.12;64.47
63500;BME280;49654;51.142;14.924;2022-12-18T10:50:48;101011.66;;;-2.30;64.06
63500;BME280;49654;51.142;14.924;2022-12-18T10:53:19;100986.88;;;-2.25;63.82
63500;BME280;49654;51.142;14.924;2022-12-18T10:55:47;100991.88;;;-2.22;64.60
63500;BME280;49654;51.142;14.924;2022-12-18T10:58:24;101002.53;;;-2.37;64.88
63500;BME280;49654;51.142;14.924;2022-12-18T11:01:06;100985.41;;;-2.32;65.25
63500;BME280;49654;51.142;14.924;2022-12-18T11:03:36;100965.00;;;-2.31;64.11
63500;BME280;49654;51.142;14.924;2022-12-18T11:06:09;100836.56;;;-2.98;63.11
63500;BME280;49654;51.142;14.924;2022-12-18T11:08:37;100900.47;;;-2.55;63.73
63500;BME280;49654;51.142;14.924;2022-12-18T11:11:09;100921.84;;;-2.60;64.20
63500;BME280;49654;51.142;14.924;2022-12-18T11:13:54;100859.53;;;-2.73;64.18
63500;BME280;49654;51.142;14.924;2022-12-18T11:16:23;100944.16;;;-2.70;65.00
63500;BME280;49654;51.142;14.924;2022-12-18T11:18:51;100915.19;;;-2.92;65.08
63500;BME280;49654;51.142;14.924;2022-12-18T11:21:18;100841.16;;;-3.10;65.61
63500;BME280;49654;51.142;14.924;2022-12-18T11:23:47;100911.44;;;-2.81;65.55
63500;BME280;49654;51.142;14.924;2022-12-18T11:26:16;100868.31;;;-3.12;65.35
63500;BME280;49654;51.142;14.924;2022-12-18T11:28:46;100976.78;;;-2.28;65.65
63500;BME280;49654;51.142;14.924;2022-12-18T11:31:21;100970.16;;;-1.81;65.07
63500;BME280;49654;51.142;14.924;2022-12-18T11:33:54;100956.44;;;-1.77;63.54
63500;BME280;49654;51.142;14.924;2022-12-18T11:36:23;100955.41;;;-1.96;63.39
63500;BME280;49654;51.142;14.924;2022-12-18T11:38:54;100904.47;;;-2.21;63.46
63500;BME280;49654;51.142;14.924;2022-12-18T11:41:25;100908.97;;;-2.29;63.80
63500;BME280;49654;51.142;14.924;2022-12-18T11:44:22;100870.16;;;-2.36;63.56
63500;BME280;49654;51.142;14.924;2022-12-18T11:46:55;100960.03;;;-1.82;63.34
63500;BME280;49654;51.142;14.924;2022-12-18T11:49:29;100933.50;;;-2.02;63.58
63500;BME280;49654;51.142;14.924;2022-12-18T11:52:04;100869.56;;;-2.17;63.06
63500;BME280;49654;51.142;14.924;2022-12-18T11:54:37;100886.28;;;-2.35;63.27
63500;BME280;49654;51.142;14.924;2022-12-18T11:57:09;100898.69;;;-2.26;63.92
63500;BME280;49654;51.142;14.924;2022-12-18T11:59:51;100895.47;;;-2.31;63.92
63500;BME280;49654;51.142;14.924;2022-12-18T12:02:40;100933.22;;;-2.19;64.93
63500;BME280;49654;51.142;14.924;2022-12-18T12:05:23;100939.03;;;-2.14;64.41
63500;BME280;49654;51.142;14.924;2022-12-18T12:08:02;100842.31;;;-2.40;64.20
63500;BME280;49654;51.142;14.924;2022-12-18T12:10:43;100923.03;;;-1.92;63.52
63500;BME280;49654;51.142;14.924;2022-12-18T12:13:23;100840.75;;;-2.44;63.45
63500;BME280;49654;51.142;14.924;2022-12-18T12:16:04;100916.81;;;-1.85;62.80
63500;BME280;49654;51.142;14.924;2022-12-18T12:18:43;100941.97;;;-1.51;62.75
63500;BME280;49654;51.142;14.924;2022-12-18T12:21:19;100769.09;;;-2.57;62.00
63500;BME280;49654;51.142;14.924;2022-12-18T12:23:53;100816.38;;;-2.25;61.73
63500;BME280;49654;51.142;14.924;2022-12-18T12:26:31;100946.63;;;-1.39;61.87
63500;BME280;49654;51.142;14.924;2022-12-18T12:29:10;100905.72;;;-1.83;61.88
63500;BME280;49654;51.142;14.924;2022-12-18T12:31:56;100944.75;;;-1.57;61.28
63500;BME280;49654;51.142;14.924;2022-12-18T12:34:34;100942.78;;;-1.51;61.76
63500;BME280;49654;51.142;14.924;2022-12-18T12:37:15;100936.16;;;-0.86;60.47
63500;BME280;49654;51.142;14.924;2022-12-18T12:39:46;100933.28;;;-0.77;59.20
63500;BME280;49654;51.142;14.924;2022-12-18T12:42:29;100947.94;;;-0.60;59.16
63500;BME280;49654;51.142;14.924;2022-12-18T12:45:18;100938.44;;;-0.34;57.56
63500;BME280;49654;51.142;14.924;2022-12-18T12:47:51;100909.78;;;-0.20;56.70
63500;BME280;49654;51.142;14.924;2022-12-18T12:50:20;100898.03;;;-0.04;55.87
63500;BME280;49654;51.142;14.924;2022-12-18T12:52:51;100956.25;;;-0.12;56.39
63500;BME280;49654;51.142;14.924;2022-12-18T12:55:21;100968.28;;;0.06;55.11
63500;BME280;49654;51.142;14.924;2022-12-18T12:57:58;100965.13;;;0.80;53.74